Flight Track Log - Related Links

Times and Time Zones

All times are in EDT time to prevent confusion due to time zone crossing. See the N589H flight status page for this flight to view local times or setup timezone preferences in your user account.

Time Position Orientation Groundspeed Altitude Reporting Facility
EDT Latitude Longitude Course Direction KTS MPH feet Rate Location/Type
Mon 04:18:23 PM 18.5167 -64.5333 285° West 230 265 3,900  Level San Juan Center
Mon 04:19:24 PM 18.5333 -64.6000 285° West 260 299 3,900  Level San Juan Center
Mon 04:20:24 PM 18.5667 -64.6667 298° West 270 311 3,900 300 Level San Juan Center
Mon 04:21:24 PM 18.6000 -64.7500 293° West 280 322 4,500 1,250 Climbing San Juan Center
Mon 04:22:24 PM 18.6167 -64.8167 285° West 250 288 6,400 2,000 Climbing San Juan Center
Mon 04:23:24 PM 18.6500 -64.8833 298° West 220 253 8,500 2,083 Climbing San Juan Center
Mon 04:24:25 PM 18.6667 -64.9333 289° West 210 242 10,600 1,934 Climbing San Juan Center
Mon 04:25:25 PM 18.7000 -64.9833 305° West 210 242 12,400 1,587 Climbing San Juan Center
Mon 04:26:26 PM 18.7333 -65.0500 298° West 230 265 13,800 1,438 Climbing San Juan Center
Mon 04:27:26 PM 18.7667 -65.1000 305° West 240 276 15,300 1,500 Climbing San Juan Center
Mon 04:28:26 PM 18.8167 -65.1667 308° West 250 288 16,800 1,537 Climbing San Juan Center
Mon 04:29:27 PM 18.8500 -65.2333 298° West 250 288 18,400 1,488 Climbing San Juan Center
Mon 04:30:27 PM 18.8833 -65.2833 305° West 250 288 19,800 1,400 Climbing San Juan Center
Mon 04:31:27 PM 18.9167 -65.3500 298° West 260 299 21,200 1,240 Climbing San Juan Center
Mon 04:32:28 PM 18.9500 -65.4167 298° West 260 299 22,300 1,041 Climbing San Juan Center
Mon 04:33:28 PM 19.0000 -65.5000 302° West 280 322 23,300 992 Climbing San Juan Center
Mon 04:34:29 PM 19.0333 -65.5667 298° West 280 322 24,300 1,041 Climbing San Juan Center
Mon 04:35:29 PM 19.0833 -65.6333 308° West 290 334 25,400 1,050 Climbing San Juan Center
Mon 04:36:29 PM 19.1333 -65.7167 302° West 290 334 26,400 992 Climbing San Juan Center
Mon 04:37:30 PM 19.1500 -65.7667 289° West 280 322 27,400 694 Climbing San Juan Center
Mon 04:38:30 PM 19.2000 -65.8333 308° West 280 322 27,800 500 Climbing San Juan Center
Mon 04:39:30 PM 19.2500 -65.9167 302° West 300 345 28,400 545 Climbing San Juan Center
Mon 04:40:31 PM 19.2833 -66.0000 293° West 310 357 28,900 496 Climbing San Juan Center
Mon 04:41:31 PM 19.3333 -66.0667 308° West 310 357 29,400 500 Climbing San Juan Center
Mon 04:42:31 PM 19.3833 -66.1500 302° West 320 368 29,900 496 Climbing San Juan Center
Mon 04:43:32 PM 19.4167 -66.2333 293° West 320 368 30,400 545 Climbing San Juan Center
Mon 04:44:32 PM 19.4833 -66.3333 305° West 310 357 31,000 545 Climbing San Juan Center
Mon 04:45:33 PM 19.5167 -66.4000 298° West 300 345 31,500 496 Climbing San Juan Center
Mon 04:46:33 PM 19.5667 -66.4833 302° West 310 357 32,000 250 Climbing San Juan Center
Mon 04:47:33 PM 19.6167 -66.5667 303° West 310 357 32,000  Level San Juan Center
Mon 04:48:34 PM 19.6500 -66.6333 298° West 320 368 32,000  Level San Juan Center
Mon 04:49:34 PM 19.7000 -66.7167 303° West 330 380 32,000  Level San Juan Center
Mon 04:50:34 PM 19.7500 -66.8167 298° West 330 380 32,000  Level San Juan Center
Mon 04:51:35 PM 19.8000 -66.8833 309° West 330 380 32,000  Level San Juan Center
Mon 04:52:35 PM 19.8500 -66.9667 303° West 330 380 32,000  Level San Juan Center
Mon 04:53:36 PM 19.8833 -67.0500 293° West 310 357 32,000  Level San Juan Center
Mon 04:54:36 PM 19.9333 -67.1333 303° West 320 368 32,000  Level San Juan Center
Mon 04:55:36 PM 19.9833 -67.2167 303° West 320 368 32,000  Level San Juan Center
Mon 04:56:37 PM 20.0333 -67.3000 303° West 320 368 32,000  Level San Juan Center
Mon 04:57:37 PM 20.0667 -67.3833 293° West 320 368 32,000  Level San Juan Center
Mon 04:58:37 PM 20.1167 -67.4667 303° West 320 368 32,000  Level San Juan Center
Mon 04:59:38 PM 20.1667 -67.5333 309° West 320 368 32,000  Level San Juan Center
Mon 05:00:38 PM 20.2167 -67.6167 303° West 310 357 32,000  Level San Juan Center
Mon 05:01:39 PM 20.2667 -67.7000 303° West 320 368 32,000  Level San Juan Center
Mon 05:02:39 PM 20.3000 -67.7833 293° West 310 357 32,000  Level San Juan Center
Mon 05:03:39 PM 20.3167 -67.8667 282° West 310 357 32,000  Level San Juan Center
Mon 05:04:40 PM 20.3500 -67.9667 290° West 320 368 32,000  Level San Juan Center
Mon 05:05:40 PM 20.3833 -68.0500 293° West 320 368 32,000  Level San Juan Center
Mon 05:06:26 PM 20.4194 -68.1369 294° West 318 366 32,000  Level Miami Center
Mon 05:07:26 PM 20.4553 -68.2228 294° West 341 392 32,000  Level Miami Center
Mon 05:08:26 PM 20.4892 -68.3092 293° West 335 386 32,000  Level Miami Center
Mon 05:09:26 PM 20.5394 -68.3900 304° West 329 379 32,000  Level Miami Center
Mon 05:10:26 PM 20.5767 -68.4628 299° West 323 372 32,000  Level Miami Center
Mon 05:11:26 PM 20.6247 -68.5417 303° West 323 372 32,000  Level Miami Center
Mon 05:12:26 PM 20.6667 -68.6253 298° West 323 372 32,000  Level Miami Center
Mon 05:13:26 PM 20.7147 -68.7064 302° West 323 372 32,000  Level Miami Center
Mon 05:14:26 PM 20.7625 -68.7856 303° West 323 372 32,000  Level Miami Center
Mon 05:15:26 PM 20.8086 -68.8692 301° West 323 372 32,000  Level Miami Center
Mon 05:16:26 PM 20.8522 -68.9508 300° West 318 366 32,000  Level Miami Center
Mon 05:17:26 PM 20.8961 -69.0325 300° West 318 366 32,000  Level Miami Center
Mon 05:18:26 PM 20.9439 -69.1139 302° West 318 366 32,000  Level Miami Center
Mon 05:19:26 PM 20.9875 -69.1958 300° West 318 366 32,000  Level Miami Center
Mon 05:20:26 PM 21.0333 -69.2797 300° West 318 366 32,000  Level Miami Center
Mon 05:21:26 PM 21.0769 -69.3594 300° West 318 366 32,000  Level Miami Center
Mon 05:22:26 PM 21.1225 -69.4411 301° West 318 366 32,000  Level Miami Center
Mon 05:23:26 PM 21.1681 -69.5208 302° West 318 366 32,000  Level Miami Center
Mon 05:24:26 PM 21.2114 -69.6008 300° West 318 366 32,000  Level Miami Center
Mon 05:25:26 PM 21.2569 -69.6850 300° West 318 366 32,000  Level Miami Center
Mon 05:26:26 PM 21.3003 -69.7628 301° West 318 366 32,000  Level Miami Center
Mon 05:27:26 PM 21.3456 -69.8450 301° West 318 366 32,000  Level Miami Center
Mon 05:28:26 PM 21.3847 -69.9231 298° West 313 360 32,000  Level Miami Center
Mon 05:29:26 PM 21.4319 -70.0028 302° West 313 360 32,000  Level Miami Center
Mon 05:30:26 PM 21.4753 -70.0853 299° West 313 360 32,000  Level Miami Center
Mon 05:31:26 PM 21.5183 -70.1633 301° West 313 360 32,000  Level Miami Center
Mon 05:32:26 PM 21.5656 -70.2456 302° West 313 360 32,000  Level Miami Center
Mon 05:33:26 PM 21.6067 -70.3261 299° West 313 360 32,000  Level Miami Center
Mon 05:34:26 PM 21.6517 -70.4064 301° West 313 360 32,000  Level Miami Center
Mon 05:35:26 PM 21.6947 -70.4847 301° West 313 360 32,000  Level Miami Center
Mon 05:36:26 PM 21.7378 -70.5675 299° West 313 360 32,000  Level Miami Center
Mon 05:37:26 PM 21.7806 -70.6458 300° West 313 360 32,000  Level Miami Center
Mon 05:38:26 PM 21.8256 -70.7264 301° West 308 354 32,000  Level Miami Center
Mon 05:39:26 PM 21.8683 -70.8069 300° West 308 354 32,000  Level Miami Center
Mon 05:40:26 PM 21.9156 -70.8944 300° West 308 354 32,000  Level Miami Center
Mon 05:41:26 PM 21.9583 -70.9750 300° West 308 354 32,000  Level Miami Center
Mon 05:42:26 PM 22.0011 -71.0536 300° West 308 354 32,000  Level Miami Center
Mon 05:43:26 PM 22.0458 -71.1322 302° West 308 354 32,000  Level Miami Center
Mon 05:44:26 PM 22.0883 -71.2133 299° West 303 349 32,000  Level Miami Center
Mon 05:45:26 PM 22.1311 -71.2967 299° West 308 354 32,000  Level Miami Center
Mon 05:46:26 PM 22.1736 -71.3731 301° West 303 349 32,000  Level Miami Center
Mon 05:47:26 PM 22.2161 -71.4544 299° West 303 349 32,000  Level Miami Center
Mon 05:48:26 PM 22.2583 -71.5311 301° West 303 349 32,000  Level Miami Center
Mon 05:49:26 PM 22.3011 -71.6144 299° West 303 349 32,000  Level Miami Center
Mon 05:50:26 PM 22.3411 -71.6914 299° West 303 349 32,000  Level Miami Center
Mon 05:51:26 PM 22.3856 -71.7728 301° West 303 349 32,000  Level Miami Center
Mon 05:52:26 PM 22.4300 -71.8517 301° West 303 349 32,000  Level Miami Center
Mon 05:53:26 PM 22.4722 -71.9311 300° West 303 349 32,000  Level Miami Center
Mon 05:54:26 PM 22.5125 -72.0125 298° West 303 349 32,000  Level Miami Center
Mon 05:55:26 PM 22.5567 -72.0919 301° West 303 349 32,000  Level Miami Center
Mon 05:56:26 PM 22.5989 -72.1736 299° West 303 349 32,000  Level Miami Center
Mon 05:57:26 PM 22.6369 -72.2553 297° West 303 349 32,000  Level Miami Center
Mon 05:58:26 PM 22.6811 -72.3347 301° West 303 349 32,000  Level Miami Center
Mon 05:59:26 PM 22.7231 -72.4119 301° West 303 349 32,000  Level Miami Center
Mon 06:00:26 PM 22.7650 -72.4917 300° West 303 349 32,000  Level Miami Center
Mon 06:02:26 PM 22.8469 -72.6533 299° West 303 349 32,000  Level Miami Center
Mon 06:03:26 PM 22.8950 -72.7261 306° West 303 349 32,000  Level Miami Center
Mon 06:04:26 PM 22.9328 -72.8083 297° West 303 349 32,000  Level Miami Center
Mon 06:05:26 PM 22.9725 -72.8883 298° West 303 349 32,000  Level Miami Center
Mon 06:06:26 PM 23.0075 -72.9594 298° West 303 349 32,000  Level Miami Center
Mon 06:07:26 PM 23.0556 -73.0414 303° West 310 357 32,000  Level Miami Center
Mon 06:08:26 PM 23.0953 -73.1217 298° West 304 350 32,000  Level Miami Center
Mon 06:09:26 PM 23.1286 -73.2019 294° West 304 350 32,000  Level Miami Center
Mon 06:10:26 PM 23.1764 -73.2794 304° West 304 350 32,000  Level Miami Center
Mon 06:11:26 PM 23.2158 -73.3597 298° West 304 350 32,000  Level Miami Center
Mon 06:12:27 PM 23.2533 -73.4403 297° West 304 350 32,000  Level Miami Center
Mon 06:13:26 PM 23.2989 -73.5181 303° West 304 350 32,000  Level Miami Center
Mon 06:14:26 PM 23.3403 -73.6008 299° West 304 350 32,000  Level Miami Center
Mon 06:15:26 PM 23.3797 -73.6789 299° West 304 350 32,000  Level Miami Center
Mon 06:16:26 PM 23.4211 -73.7661 297° West 304 350 32,000  Level Miami Center
Mon 06:17:26 PM 23.4625 -73.8444 300° West 304 350 32,000  Level Miami Center
Mon 06:18:26 PM 23.5036 -73.9228 300° West 304 350 32,000  Level Miami Center
Mon 06:19:26 PM 23.5450 -74.0011 300° West 304 350 32,000  Level Miami Center
Mon 06:20:26 PM 23.5819 -74.0794 297° West 304 350 32,000  Level Miami Center
Mon 06:21:26 PM 23.6231 -74.1581 300° West 304 350 32,000  Level Miami Center
Mon 06:22:26 PM 23.6664 -74.2364 301° West 304 350 32,000  Level Miami Center
Mon 06:23:26 PM 23.7011 -74.3175 295° West 304 350 32,000  Level Miami Center
Mon 06:24:26 PM 23.7442 -74.3961 301° West 304 350 32,000  Level Miami Center
Mon 06:25:26 PM 23.7808 -74.4703 298° West 304 350 32,000  Level Miami Center
Mon 06:26:26 PM 23.8219 -74.5489 300° West 299 344 32,000  Level Miami Center
Mon 06:27:26 PM 23.8586 -74.6278 297° West 299 344 32,000  Level Miami Center
Mon 06:28:26 PM 23.8994 -74.7067 300° West 299 344 32,000  Level Miami Center
Mon 06:29:26 PM 23.9381 -74.7808 300° West 299 344 32,000  Level Miami Center
Mon 06:30:26 PM 23.9769 -74.8597 298° West 299 344 32,000  Level Miami Center
Mon 06:31:26 PM 24.0156 -74.9389 298° West 299 344 32,000  Level Miami Center
Mon 06:32:26 PM 24.0519 -75.0156 297° West 299 344 32,000  Level Miami Center
Mon 06:33:26 PM 24.0925 -75.0903 301° West 294 338 32,000  Level Miami Center
Mon 06:34:26 PM 24.1311 -75.1669 299° West 294 338 32,000  Level Miami Center
Mon 06:35:26 PM 24.1675 -75.2464 297° West 294 338 32,000  Level Miami Center
Mon 06:36:26 PM 24.2081 -75.3256 299° West 294 338 32,000  Level Miami Center
Mon 06:37:26 PM 24.2464 -75.4025 299° West 294 338 32,000  Level Miami Center
Mon 06:38:26 PM 24.2828 -75.4819 297° West 289 333 32,000  Level Miami Center
Mon 06:39:26 PM 24.3231 -75.5589 300° West 289 333 32,000  Level Miami Center
Mon 06:40:26 PM 24.3614 -75.6406 297° West 289 333 32,000  Level Miami Center
Mon 06:41:26 PM 24.3997 -75.7156 299° West 289 333 32,000  Level Miami Center
Mon 06:42:26 PM 24.4358 -75.7953 296° West 289 333 32,000  Level Miami Center
Mon 06:43:26 PM 24.4739 -75.8725 298° West 289 333 32,000  Level Miami Center
Mon 06:44:26 PM 24.5142 -75.9544 298° West 289 333 32,000  Level Miami Center
Mon 06:45:26 PM 24.5522 -76.0317 298° West 294 338 32,000  Level Miami Center
Mon 06:46:26 PM 24.5903 -76.1139 297° West 294 338 32,000  Level Miami Center
Mon 06:47:26 PM 24.6303 -76.1914 300° West 300 345 32,000  Level Miami Center
Mon 06:48:26 PM 24.6622 -76.2756 293° West 300 345 32,000  Level Miami Center
Mon 06:49:26 PM 24.6917 -76.3556 292° West 295 339 32,000  Level Miami Center
Mon 06:50:26 PM 24.7233 -76.4425 292° West 295 339 32,000  Level Miami Center
Mon 06:51:26 PM 24.7528 -76.5269 291° West 295 339 32,000  Level Miami Center
Mon 06:52:26 PM 24.7883 -76.6094 295° West 295 339 32,000  Level Miami Center
Mon 06:53:26 PM 24.8158 -76.6986 289° West 295 339 32,000  Level Miami Center
Mon 06:54:26 PM 24.8514 -76.7833 295° West 295 339 32,000  Level Miami Center
Mon 06:55:26 PM 24.8806 -76.8703 290° West 295 339 32,000  Level Miami Center
Mon 06:56:26 PM 24.9119 -76.9550 292° West 295 339 32,000  Level Miami Center
Mon 06:57:26 PM 24.9433 -77.0400 292° West 295 339 32,000  Level Miami Center
Mon 06:58:26 PM 24.9725 -77.1247 291° West 295 339 32,000  Level Miami Center
Mon 06:59:26 PM 25.0036 -77.2075 293° West 295 339 32,000  Level Miami Center
Mon 07:00:26 PM 25.0347 -77.2922 292° West 295 339 32,000  Level Miami Center
Mon 07:01:26 PM 25.0594 -77.3636 291° West 295 339 32,000  Level Miami Center
Mon 07:02:26 PM 25.0947 -77.4692 290° West 301 346 32,000  Level Miami Center
Mon 07:03:26 PM 25.1236 -77.5450 293° West 306 352 32,000  Level Miami Center
Mon 07:04:26 PM 25.1567 -77.6325 293° West 311 358 32,000  Level Miami Center
Mon 07:05:26 PM 25.1856 -77.7153 291° West 306 352 32,000  Level Miami Center
Mon 07:06:26 PM 25.2183 -77.8053 292° West 306 352 32,000  Level Miami Center
Mon 07:07:26 PM 25.2469 -77.8928 290° West 306 352 32,000  Level Miami Center
Mon 07:08:26 PM 25.2778 -77.9803 291° West 311 358 32,000 -350 Level Miami Center
Mon 07:09:26 PM 25.3125 -78.0681 294° West 311 358 31,300 -1,350 Descending Miami Center
Mon 07:10:26 PM 25.3450 -78.1672 290° West 317 365 29,300 -1,950 Descending Miami Center
Mon 07:11:26 PM 25.3817 -78.2711 291° West 342 394 27,400 -1,850 Descending Miami Center
Mon 07:12:26 PM 25.4164 -78.3750 290° West 351 404 25,600 -1,800 Descending Miami Center
Mon 07:13:26 PM 25.4550 -78.4722 294° West 351 404 23,800 -1,750 Descending Miami Center
Mon 07:14:26 PM 25.4831 -78.5669 288° West 341 392 22,100 -1,700 Descending Miami Center
Mon 07:15:26 PM 25.5133 -78.6572 290° West 331 381 20,400 -1,700 Descending Miami Center
Mon 07:16:26 PM 25.5500 -78.7453 295° West 315 362 18,700 -1,600 Descending Miami Center
Mon 07:17:26 PM 25.5739 -78.8353 286° West 310 357 17,200 -1,450 Descending Miami Center
Mon 07:18:26 PM 25.6081 -78.9214 294° West 310 357 15,800 -1,550 Descending Miami Center
Mon 07:19:26 PM 25.6422 -79.0164 292° West 303 349 14,100 -1,500 Descending Miami Center
Mon 07:20:26 PM 25.6725 -79.0953 293° West 298 343 12,800 -1,350 Descending Miami Center
Mon 07:21:26 PM 25.6983 -79.1811 288° West 292 336 11,400 -1,350 Descending Miami Center
Mon 07:22:26 PM 25.7264 -79.2600 292° West 292 336 10,100 -1,400 Descending Miami Center
Mon 07:23:26 PM 25.7500 -79.3389 288° West 292 336 8,600 -1,400 Descending Miami Center
Mon 07:24:26 PM 25.7717 -79.4131 288° West 287 330 7,300 -1,440 Descending Miami Center
Mon 07:25:06 PM 25.7917 -79.4783 289° West 274 315 6,200 -1,500 Descending Miami Center
Mon 07:25:26 PM 25.7994 -79.4992 293° West 282 325 5,800 -1,275 Descending Miami Center
Mon 07:26:26 PM 25.8294 -79.5806 292° West 282 325 4,500 -1,333 Descending Miami Center
Mon 07:26:38 PM 25.8311 -79.5944 278° West 276 318 4,200 -400 Descending Miami Center
Mon 07:27:26 PM 25.8508 -79.6572 289° West 275 316 4,100 -164 Descending Miami Center
Mon 07:27:51 PM 25.8586 -79.6919 284° West 264 304 4,000 -100 Descending Miami Center
Mon 07:28:26 PM 25.8744 -79.7317 294° West 264 304 4,000 -122 Level Miami Center
Mon 07:28:40 PM 25.8764 -79.7503 277° West 250 288 3,900  Descending Miami Center
Mon 07:29:26 PM 25.9003 -79.8017 297° West 258 297 4,000  Climbing Miami Center
Mon 07:29:41 PM 25.9019 -79.8225 275° West 244 281 3,900  Descending Miami Center
Mon 07:30:26 PM 25.9239 -79.8714 297° West 248 285 4,000  Climbing Miami Center
Mon 07:30:42 PM 25.9278 -79.8900 283° West 243 280 3,900  Descending Miami Center
Mon 07:31:26 PM 25.9497 -79.9439 294° West 248 285 4,000  Climbing Miami Center
Mon 07:31:49 PM 25.9553 -79.9717 283° West 243 280 3,900  Descending Miami Center
Mon 07:32:26 PM 25.9733 -80.0114 297° West 248 285 4,000  Climbing Miami Center
Mon 07:32:56 PM 25.9831 -80.0439 288° West 221 254 3,900  Descending Miami Center
Mon 07:33:26 PM 25.9928 -80.0742 290° West 236 272 4,000 -218 Climbing Miami Center
Mon 07:33:51 PM 25.9900 -80.1019 264° West 214 246 3,700 -500 Descending Miami Center
Mon 07:34:26 PM 25.9933 -80.1392 276° West 219 252 3,500 -581 Descending Miami Center
Mon 07:34:53 PM 25.9928 -80.1692 269° West 200 230 3,100 -319 Descending Miami Center
Mon 07:36:00 PM 25.9975 -80.2339 275° West 184 212 3,000 -94 Descending Miami Center
Mon 07:37:01 PM 26.0006 -80.2872 274° West 177 204 2,900  Descending Miami Center
Mon 07:38:02 PM 26.0356 -80.3114 328° Northwest 166 191 3,000 -52 Climbing Miami Center
Mon 07:38:57 PM 26.0756 -80.2939 21° North 166 191 2,800 -466 Descending Miami Center
Mon 07:39:58 PM 26.0744 -80.2453 91° East 151 174 2,100 -984 Descending Miami Center
Mon 07:40:59 PM 26.0756 -80.2014 88° East 137 158 800 -1,279 Descending Miami Center
Mon 07:43:00 PM 26.0667 -80.1500 90° East  Level FlightAware Approximate

Login

Don't have an account? Register now (free) for customized features, flight alerts, and more!